createdAt,value
2023-02-27T00:00:09.390Z,3.50
2023-02-27T00:01:10.100Z,3.70
2023-02-27T00:02:10.808Z,3.70
2023-02-27T00:03:11.998Z,3.70
2023-02-27T00:04:12.268Z,3.60
2023-02-27T00:05:12.937Z,3.60
2023-02-27T00:06:13.665Z,3.60
2023-02-27T00:07:14.352Z,3.70
2023-02-27T00:08:15.487Z,3.80
2023-02-27T00:09:15.679Z,3.50
2023-02-27T00:10:16.402Z,3.60
2023-02-27T00:11:17.054Z,3.80
2023-02-27T00:12:17.736Z,4.30
2023-02-27T00:13:18.450Z,4.20
2023-02-27T00:14:19.159Z,3.80
2023-02-27T00:15:19.860Z,3.50
2023-02-27T00:16:20.722Z,3.50
2023-02-27T00:17:21.414Z,3.70
2023-02-27T00:18:22.475Z,4.00
2023-02-27T00:19:22.681Z,3.90
2023-02-27T00:20:23.389Z,3.70
2023-02-27T00:21:24.295Z,4.00
2023-02-27T00:22:25.022Z,3.40
2023-02-27T00:23:25.976Z,4.00
2023-02-27T00:24:26.681Z,4.10
2023-02-27T00:25:27.406Z,3.90
2023-02-27T00:26:28.032Z,3.70
2023-02-27T00:27:28.760Z,4.30
2023-02-27T00:28:29.978Z,4.20
2023-02-27T00:29:30.181Z,3.90
2023-02-27T00:30:30.969Z,4.10
2023-02-27T00:31:31.640Z,4.10
2023-02-27T00:32:32.406Z,4.20
2023-02-27T00:33:33.497Z,4.20
2023-02-27T00:34:33.686Z,3.90
2023-02-27T00:35:34.395Z,4.00
2023-02-27T00:36:35.122Z,4.20
2023-02-27T00:37:35.806Z,4.10
2023-02-27T00:38:36.975Z,4.10
2023-02-27T00:39:37.176Z,4.10
2023-02-27T00:40:37.954Z,4.00
2023-02-27T00:41:38.597Z,4.30
2023-02-27T00:42:39.304Z,4.30
2023-02-27T00:43:40.472Z,4.10
2023-02-27T00:44:40.689Z,4.10
2023-02-27T00:45:41.385Z,4.40
2023-02-27T00:46:42.127Z,4.00
2023-02-27T00:47:42.798Z,4.20
2023-02-27T00:48:43.970Z,4.30
2023-02-27T00:49:44.181Z,4.20
2023-02-27T00:50:44.884Z,4.60
2023-02-27T00:51:45.618Z,4.70
2023-02-27T00:52:46.301Z,4.40
2023-02-27T00:53:47.471Z,4.30
2023-02-27T00:54:47.683Z,4.10
2023-02-27T00:55:48.403Z,4.20
2023-02-27T00:56:49.048Z,4.20
2023-02-27T00:57:49.792Z,4.40
2023-02-27T00:58:50.973Z,4.10
2023-02-27T00:59:51.184Z,4.40
2023-02-27T01:00:51.942Z,4.40
2023-02-27T01:01:52.604Z,4.30
2023-02-27T01:02:53.409Z,4.40
2023-02-27T01:03:54.514Z,4.60
2023-02-27T01:04:54.708Z,4.30
2023-02-27T01:05:55.420Z,4.20
2023-02-27T01:06:56.146Z,4.10
2023-02-27T01:07:56.839Z,4.60
2023-02-27T01:08:57.976Z,4.10
2023-02-27T01:09:58.180Z,4.50
2023-02-27T01:10:58.912Z,4.20
2023-02-27T01:11:59.538Z,4.40
2023-02-27T01:13:00.308Z,4.10
2023-02-27T01:14:01.018Z,4.50
2023-02-27T01:15:01.743Z,4.60
2023-02-27T01:16:02.520Z,4.10
2023-02-27T01:17:03.195Z,4.40
2023-02-27T01:18:03.946Z,4.60
2023-02-27T01:19:04.978Z,4.60
2023-02-27T01:20:05.184Z,4.20
2023-02-27T01:21:05.896Z,4.60
2023-02-27T01:22:06.619Z,4.50
2023-02-27T01:23:07.315Z,4.60
2023-02-27T01:24:08.489Z,4.50
2023-02-27T01:25:08.687Z,4.40
2023-02-27T01:26:09.455Z,4.80
2023-02-27T01:27:10.102Z,4.50
2023-02-27T01:28:10.804Z,4.60
2023-02-27T01:29:11.979Z,4.40
2023-02-27T01:30:12.205Z,4.40
2023-02-27T01:31:12.901Z,4.40
2023-02-27T01:32:13.763Z,4.70
2023-02-27T01:33:14.441Z,4.50
2023-02-27T01:34:15.167Z,4.80
2023-02-27T01:35:15.874Z,4.90
2023-02-27T01:36:16.582Z,4.70
2023-02-27T01:37:17.319Z,4.70
2023-02-27T01:38:18.004Z,5.00
2023-02-27T01:39:18.990Z,5.10
2023-02-27T01:40:19.685Z,4.90
2023-02-27T01:41:20.411Z,5.20
2023-02-27T01:42:21.064Z,5.10
2023-02-27T01:43:21.767Z,4.80
2023-02-27T01:44:22.481Z,5.00
2023-02-27T01:45:23.189Z,4.80
2023-02-27T01:46:23.907Z,4.40
2023-02-27T01:47:24.608Z,5.30
2023-02-27T01:48:25.312Z,5.10
2023-02-27T01:49:26.480Z,4.90
2023-02-27T01:50:26.685Z,5.10
2023-02-27T01:51:27.699Z,5.30
2023-02-27T01:52:28.010Z,5.20
2023-02-27T01:53:28.695Z,5.40
2023-02-27T01:54:29.411Z,5.10
2023-02-27T01:55:30.122Z,4.90
2023-02-27T01:56:30.835Z,5.00
2023-02-27T01:57:31.492Z,4.90
2023-02-27T01:58:32.189Z,5.30
2023-02-27T01:59:32.895Z,5.20
2023-02-27T02:00:33.604Z,5.10
2023-02-27T02:01:34.431Z,4.90
2023-02-27T02:02:35.163Z,5.00
2023-02-27T02:03:35.850Z,5.20
2023-02-27T02:04:37.003Z,4.60
2023-02-27T02:05:37.204Z,4.60
2023-02-27T02:06:37.978Z,4.80
2023-02-27T02:07:38.698Z,5.00
2023-02-27T02:08:39.386Z,5.00
2023-02-27T02:09:40.497Z,4.80
2023-02-27T02:10:40.686Z,4.90
2023-02-27T02:11:41.411Z,5.20
2023-02-27T02:12:42.088Z,4.80
2023-02-27T02:13:42.840Z,4.50
2023-02-27T02:14:43.984Z,5.00
2023-02-27T02:15:44.183Z,4.60
2023-02-27T02:16:44.993Z,4.80
2023-02-27T02:17:45.647Z,5.00
2023-02-27T02:18:46.354Z,4.90
2023-02-27T02:19:47.081Z,4.80
2023-02-27T02:20:47.790Z,4.70
2023-02-27T02:21:48.494Z,4.70
2023-02-27T02:22:49.221Z,4.40
2023-02-27T02:23:49.909Z,4.60
2023-02-27T02:24:50.975Z,4.50
2023-02-27T02:25:51.186Z,4.00
2023-02-27T02:26:51.918Z,4.20
2023-02-27T02:27:52.594Z,4.10
2023-02-27T02:28:53.306Z,4.10
2023-02-27T02:29:54.479Z,4.60
2023-02-27T02:30:54.782Z,4.70
2023-02-27T02:31:55.717Z,4.40
2023-02-27T02:32:56.409Z,4.40
2023-02-27T02:33:57.118Z,4.00
2023-02-27T02:34:57.982Z,4.40
2023-02-27T02:35:58.759Z,4.40
2023-02-27T02:36:59.409Z,4.30
2023-02-27T02:38:00.138Z,4.30
2023-02-27T02:39:00.839Z,4.30
2023-02-27T02:40:01.977Z,4.60
2023-02-27T02:41:02.191Z,4.20
2023-02-27T02:42:03.046Z,4.50
2023-02-27T02:43:03.684Z,4.40
2023-02-27T02:44:04.414Z,4.50
2023-02-27T02:45:05.479Z,4.30
2023-02-27T02:46:05.775Z,4.50
2023-02-27T02:47:06.448Z,4.40
2023-02-27T02:48:07.254Z,4.50
2023-02-27T02:49:07.963Z,4.70
2023-02-27T02:50:08.981Z,4.70
2023-02-27T02:51:09.199Z,4.50
2023-02-27T02:52:09.908Z,4.50
2023-02-27T02:53:10.634Z,4.70
2023-02-27T02:54:11.310Z,4.80
2023-02-27T02:55:12.508Z,4.80
2023-02-27T02:56:12.693Z,4.90
2023-02-27T02:57:13.420Z,4.60
2023-02-27T02:58:14.058Z,4.70
2023-02-27T02:59:14.774Z,5.10
2023-02-27T03:00:15.984Z,5.00
2023-02-27T03:01:16.256Z,4.90
2023-02-27T03:02:16.892Z,4.90
2023-02-27T03:03:17.598Z,4.70
2023-02-27T03:04:18.373Z,4.80
2023-02-27T03:05:19.503Z,4.70
2023-02-27T03:06:19.704Z,4.80
2023-02-27T03:07:20.445Z,4.80
2023-02-27T03:08:21.132Z,5.10
2023-02-27T03:09:21.814Z,4.90
2023-02-27T03:10:22.526Z,5.30
2023-02-27T03:11:23.233Z,4.80
2023-02-27T03:12:23.953Z,5.30
2023-02-27T03:13:24.586Z,4.90
2023-02-27T03:14:25.289Z,5.10
2023-02-27T03:15:26.011Z,4.70
2023-02-27T03:16:26.711Z,5.10
2023-02-27T03:17:27.416Z,5.10
2023-02-27T03:18:28.127Z,5.20
2023-02-27T03:19:28.843Z,5.00
2023-02-27T03:20:29.973Z,5.00
2023-02-27T03:21:30.182Z,5.90
2023-02-27T03:22:30.884Z,5.50
2023-02-27T03:23:31.608Z,4.80
2023-02-27T03:24:32.289Z,5.50
2023-02-27T03:25:33.007Z,5.10
2023-02-27T03:26:33.705Z,4.90
2023-02-27T03:27:34.426Z,5.50
2023-02-27T03:28:35.061Z,5.10
2023-02-27T03:29:35.762Z,5.70
2023-02-27T03:30:36.523Z,5.30
2023-02-27T03:31:37.256Z,5.20
2023-02-27T03:32:37.916Z,5.40
2023-02-27T03:33:38.620Z,5.30
2023-02-27T03:34:39.324Z,5.00
2023-02-27T03:35:40.047Z,5.40
2023-02-27T03:36:40.746Z,5.40
2023-02-27T03:37:41.450Z,5.60
2023-02-27T03:38:42.192Z,5.40
2023-02-27T03:39:42.855Z,5.40
2023-02-27T03:40:43.581Z,4.90
2023-02-27T03:41:44.275Z,5.20
2023-02-27T03:42:44.994Z,5.20
2023-02-27T03:43:45.652Z,5.00
2023-02-27T03:44:46.359Z,5.40
2023-02-27T03:45:47.469Z,5.00
2023-02-27T03:46:47.669Z,5.20
2023-02-27T03:47:48.374Z,4.60
2023-02-27T03:48:49.076Z,5.30
2023-02-27T03:49:49.779Z,5.40
2023-02-27T03:50:50.514Z,5.40
2023-02-27T03:51:51.197Z,5.80
2023-02-27T03:52:51.901Z,5.20
2023-02-27T03:53:52.624Z,5.50
2023-02-27T03:54:53.306Z,5.30
2023-02-27T03:55:54.017Z,5.30
2023-02-27T03:56:54.720Z,5.40
2023-02-27T03:57:55.451Z,5.80
2023-02-27T03:58:56.073Z,5.90
2023-02-27T03:59:56.806Z,5.70
2023-02-27T04:00:57.974Z,5.90
2023-02-27T04:01:58.187Z,5.60
2023-02-27T04:02:58.991Z,5.50
2023-02-27T04:03:59.654Z,5.70
2023-02-27T04:05:00.360Z,6.00
2023-02-27T04:06:01.093Z,5.50
2023-02-27T04:07:01.798Z,5.90
2023-02-27T04:08:02.506Z,5.80
2023-02-27T04:09:03.247Z,5.90
2023-02-27T04:10:03.936Z,5.70
2023-02-27T04:11:04.967Z,5.70
2023-02-27T04:12:05.176Z,5.80
2023-02-27T04:13:05.900Z,6.00
2023-02-27T04:14:06.529Z,5.80
2023-02-27T04:15:07.250Z,5.70
2023-02-27T04:16:08.068Z,6.30
2023-02-27T04:17:08.742Z,5.80
2023-02-27T04:18:09.453Z,5.80
2023-02-27T04:19:10.159Z,6.00
2023-02-27T04:20:10.909Z,5.90
2023-02-27T04:21:11.967Z,5.50
2023-02-27T04:22:12.184Z,5.80
2023-02-27T04:23:12.882Z,6.00
2023-02-27T04:24:13.618Z,5.60
2023-02-27T04:25:14.300Z,5.40
2023-02-27T04:26:15.467Z,5.70
2023-02-27T04:27:15.679Z,5.80
2023-02-27T04:28:16.406Z,5.70
2023-02-27T04:29:17.043Z,5.70
2023-02-27T04:30:17.749Z,5.80
2023-02-27T04:31:18.627Z,5.60
2023-02-27T04:32:19.433Z,5.70
2023-02-27T04:33:20.174Z,6.10
2023-02-27T04:34:21.090Z,5.20
2023-02-27T04:35:21.795Z,5.40
2023-02-27T04:36:22.985Z,5.50
2023-02-27T04:37:23.206Z,5.30
2023-02-27T04:38:23.922Z,5.50
2023-02-27T04:39:24.656Z,5.90
2023-02-27T04:40:25.344Z,5.60
2023-02-27T04:41:26.861Z,5.40
2023-02-27T04:42:26.685Z,5.20
2023-02-27T04:43:27.478Z,5.60
2023-02-27T04:44:28.105Z,5.40
2023-02-27T04:45:28.841Z,5.60
2023-02-27T04:46:29.526Z,5.70
2023-02-27T04:47:30.229Z,5.70
2023-02-27T04:48:30.934Z,5.30
2023-02-27T04:49:31.653Z,5.50
2023-02-27T04:50:32.349Z,5.90
2023-02-27T04:51:33.480Z,5.70
2023-02-27T04:52:33.686Z,5.60
2023-02-27T04:53:34.392Z,5.80
2023-02-27T04:54:35.124Z,6.00
2023-02-27T04:55:35.809Z,6.30
2023-02-27T04:56:36.975Z,6.50
2023-02-27T04:57:37.200Z,6.30
2023-02-27T04:58:37.921Z,6.10
2023-02-27T04:59:38.568Z,6.00
2023-02-27T05:00:39.282Z,6.70
2023-02-27T05:01:40.492Z,6.40
2023-02-27T05:02:40.859Z,6.20
2023-02-27T05:03:41.579Z,6.10
2023-02-27T05:04:42.288Z,6.40
2023-02-27T05:05:42.994Z,6.40
2023-02-27T05:06:43.994Z,6.30
2023-02-27T05:07:44.214Z,6.40
2023-02-27T05:08:44.906Z,6.30
2023-02-27T05:09:45.635Z,6.10
2023-02-27T05:10:46.320Z,6.50
2023-02-27T05:11:47.478Z,6.00
2023-02-27T05:12:47.698Z,6.30
2023-02-27T05:13:48.403Z,6.50
2023-02-27T05:14:49.037Z,6.80
2023-02-27T05:15:49.786Z,6.60
2023-02-27T05:16:50.460Z,6.50
2023-02-27T05:17:51.187Z,6.30
2023-02-27T05:18:51.873Z,6.50
2023-02-27T05:19:52.594Z,6.60
2023-02-27T05:20:53.295Z,6.60
2023-02-27T05:21:54.476Z,6.50
2023-02-27T05:22:54.683Z,6.30
2023-02-27T05:23:55.421Z,6.80
2023-02-27T05:24:56.125Z,6.60
2023-02-27T05:25:56.811Z,6.40
2023-02-27T05:26:57.980Z,6.30
2023-02-27T05:27:58.195Z,6.60
2023-02-27T05:28:58.907Z,6.60
2023-02-27T05:29:59.556Z,6.60
2023-02-27T05:31:00.243Z,6.50
2023-02-27T05:32:01.086Z,6.80
2023-02-27T05:33:01.754Z,6.90
2023-02-27T05:34:02.458Z,7.10
2023-02-27T05:35:03.181Z,7.10
2023-02-27T05:36:03.924Z,7.20
2023-02-27T05:37:04.589Z,6.80
2023-02-27T05:38:05.295Z,6.30
2023-02-27T05:39:05.998Z,6.60
2023-02-27T05:40:06.724Z,7.00
2023-02-27T05:41:09.227Z,6.50
2023-02-27T05:42:08.002Z,6.80
2023-02-27T05:43:08.694Z,6.70
2023-02-27T05:44:09.421Z,6.60
2023-02-27T05:45:10.080Z,6.80
2023-02-27T05:46:10.854Z,6.60
2023-02-27T05:47:11.983Z,7.30
2023-02-27T05:48:12.197Z,7.10
2023-02-27T05:49:12.904Z,7.60
2023-02-27T05:50:13.648Z,7.10
2023-02-27T05:51:14.358Z,7.00
2023-02-27T05:52:15.486Z,7.50
2023-02-27T05:53:15.679Z,7.20
2023-02-27T05:54:16.386Z,7.20
2023-02-27T05:55:18.825Z,6.60
2023-02-27T05:56:17.604Z,6.20
2023-02-27T05:57:18.471Z,6.50
2023-02-27T05:58:19.179Z,6.90
2023-02-27T05:59:19.905Z,6.60
2023-02-27T06:00:20.591Z,6.80
2023-02-27T06:01:21.294Z,6.70
2023-02-27T06:02:22.507Z,6.80
2023-02-27T06:03:22.755Z,6.60
2023-02-27T06:04:23.405Z,7.30
2023-02-27T06:05:24.100Z,6.50
2023-02-27T06:06:25.016Z,6.90
2023-02-27T06:07:25.983Z,6.70
2023-02-27T06:08:26.694Z,7.40
2023-02-27T06:09:27.395Z,6.90
2023-02-27T06:10:28.125Z,7.60
2023-02-27T06:11:28.811Z,6.90
2023-02-27T06:12:29.972Z,7.00
2023-02-27T06:13:30.178Z,7.60
2023-02-27T06:14:30.948Z,7.60
2023-02-27T06:15:31.585Z,7.60
2023-02-27T06:16:32.315Z,7.80
2023-02-27T06:17:33.474Z,7.20
2023-02-27T06:18:33.689Z,7.10
2023-02-27T06:19:34.398Z,7.30
2023-02-27T06:20:35.102Z,7.70
2023-02-27T06:21:35.806Z,7.70
2023-02-27T06:22:36.976Z,7.00
2023-02-27T06:23:37.188Z,7.40
2023-02-27T06:24:37.891Z,7.60
2023-02-27T06:25:38.639Z,7.00
2023-02-27T06:26:39.325Z,7.70
2023-02-27T06:27:40.040Z,7.50
2023-02-27T06:28:40.759Z,7.50
2023-02-27T06:29:41.486Z,7.40
2023-02-27T06:30:42.195Z,7.30
2023-02-27T06:31:42.875Z,7.60
2023-02-27T06:32:43.605Z,7.70
2023-02-27T06:33:44.300Z,7.50
2023-02-27T06:34:45.003Z,7.00
2023-02-27T06:35:45.771Z,7.80
2023-02-27T06:36:46.472Z,7.10
2023-02-27T06:37:47.467Z,7.10
2023-02-27T06:38:47.674Z,7.40
2023-02-27T06:39:48.379Z,7.80
2023-02-27T06:40:49.104Z,7.50
2023-02-27T06:41:49.797Z,7.10
2023-02-27T06:42:50.968Z,7.20
2023-02-27T06:43:51.172Z,7.00
2023-02-27T06:44:51.992Z,7.30
2023-02-27T06:45:52.653Z,6.90
2023-02-27T06:46:53.330Z,6.50
2023-02-27T06:47:54.470Z,7.20
2023-02-27T06:48:54.676Z,7.20
2023-02-27T06:49:55.446Z,6.90
2023-02-27T06:50:56.164Z,6.90
2023-02-27T06:51:56.867Z,6.80
2023-02-27T06:52:57.973Z,6.40
2023-02-27T06:53:58.177Z,6.60
2023-02-27T06:54:58.885Z,6.10
2023-02-27T06:55:59.611Z,6.60
2023-02-27T06:57:00.296Z,6.50
2023-02-27T06:58:01.470Z,6.10
2023-02-27T06:59:01.673Z,6.10
2023-02-27T07:00:02.404Z,6.00
2023-02-27T07:01:03.049Z,6.80
2023-02-27T07:02:03.737Z,5.90
2023-02-27T07:03:04.477Z,5.90
2023-02-27T07:04:05.171Z,5.80
2023-02-27T07:05:08.196Z,6.10
2023-02-27T07:06:06.563Z,5.80
2023-02-27T07:07:34.352Z,5.80
2023-02-27T07:08:08.901Z,5.70
2023-02-27T07:09:08.660Z,5.80
2023-02-27T07:10:09.369Z,5.70
2023-02-27T07:11:10.095Z,5.70
2023-02-27T07:12:10.778Z,5.70
2023-02-27T07:13:13.186Z,5.80
2023-02-27T07:14:12.355Z,5.50
2023-02-27T07:15:13.087Z,5.90
2023-02-27T07:16:13.820Z,5.70
2023-02-27T07:17:14.534Z,6.00
2023-02-27T07:18:15.265Z,5.80
2023-02-27T07:19:15.955Z,5.70
2023-02-27T07:20:16.662Z,6.00
2023-02-27T07:21:17.371Z,5.50
2023-02-27T07:22:18.095Z,5.60
2023-02-27T07:23:18.795Z,5.70
2023-02-27T07:24:19.500Z,5.70
2023-02-27T07:25:20.211Z,5.50
2023-02-27T07:26:20.933Z,5.90
2023-02-27T07:27:21.626Z,5.50
2023-02-27T07:28:22.399Z,5.10
2023-02-27T07:29:23.064Z,5.40
2023-02-27T07:30:23.790Z,5.30
2023-02-27T07:31:24.491Z,5.40
2023-02-27T07:32:25.147Z,5.30
2023-02-27T07:33:25.973Z,5.50
2023-02-27T07:34:26.680Z,5.60
2023-02-27T07:35:27.417Z,5.60
2023-02-27T07:36:28.406Z,5.20
2023-02-27T07:37:28.724Z,5.40
2023-02-27T07:38:29.986Z,5.20
2023-02-27T07:39:30.190Z,5.40
2023-02-27T07:40:30.891Z,5.10
2023-02-27T07:41:31.612Z,4.90
2023-02-27T07:42:32.305Z,5.00
2023-02-27T07:43:33.019Z,5.20
2023-02-27T07:44:33.741Z,5.10
2023-02-27T07:45:34.491Z,5.00
2023-02-27T07:46:35.196Z,4.90
2023-02-27T07:47:35.867Z,4.90
2023-02-27T07:48:36.968Z,5.50
2023-02-27T07:49:37.179Z,5.10
2023-02-27T07:50:37.884Z,4.60
2023-02-27T07:51:38.587Z,5.30
2023-02-27T07:52:39.296Z,5.20
2023-02-27T07:53:40.471Z,5.40
2023-02-27T07:54:40.679Z,5.60
2023-02-27T07:55:41.388Z,4.90
2023-02-27T07:56:42.111Z,5.20
2023-02-27T07:57:42.817Z,4.80
2023-02-27T07:58:43.535Z,4.90
2023-02-27T07:59:44.245Z,4.80
2023-02-27T08:00:44.972Z,4.40
2023-02-27T08:01:45.641Z,4.70
2023-02-27T08:02:46.433Z,4.40
2023-02-27T08:03:47.472Z,4.50
2023-02-27T08:04:47.751Z,4.80
2023-02-27T08:05:48.415Z,4.90
2023-02-27T08:06:49.118Z,4.90
2023-02-27T08:07:49.935Z,4.70
2023-02-27T08:08:50.991Z,4.60
2023-02-27T08:09:51.433Z,4.50
2023-02-27T08:10:52.142Z,4.30
2023-02-27T08:11:52.917Z,4.40
2023-02-27T08:12:53.563Z,4.40
2023-02-27T08:14:02.421Z,4.30
2023-02-27T08:14:56.072Z,4.80
2023-02-27T08:15:55.886Z,4.80
2023-02-27T08:16:56.526Z,4.40
2023-02-27T08:17:57.235Z,4.50
2023-02-27T08:18:57.952Z,4.70
2023-02-27T08:19:58.667Z,4.80
2023-02-27T08:20:59.370Z,4.40
2023-02-27T08:22:00.111Z,4.30
2023-02-27T08:23:00.783Z,4.50
2023-02-27T08:24:01.500Z,4.30
2023-02-27T08:25:02.207Z,4.10
2023-02-27T08:26:02.919Z,4.20
2023-02-27T08:27:03.644Z,3.80
2023-02-27T08:28:04.333Z,3.80
2023-02-27T08:29:05.051Z,4.00
2023-02-27T08:30:05.752Z,4.20
2023-02-27T08:31:06.625Z,4.40
2023-02-27T08:32:07.284Z,3.80
2023-02-27T08:33:07.973Z,3.90
2023-02-27T08:34:10.528Z,3.70
2023-02-27T08:35:09.404Z,3.70
2023-02-27T08:36:10.277Z,3.50
2023-02-27T08:37:10.969Z,3.70
2023-02-27T08:38:11.680Z,3.60
2023-02-27T08:39:12.467Z,3.70
2023-02-27T08:40:13.205Z,3.70
2023-02-27T08:41:13.908Z,3.50
2023-02-27T08:42:14.634Z,3.70
2023-02-27T08:43:15.355Z,3.60
2023-02-27T08:44:16.473Z,3.70
2023-02-27T08:45:16.686Z,3.60
2023-02-27T08:46:17.406Z,3.40
2023-02-27T08:47:18.101Z,3.30
2023-02-27T08:48:18.825Z,3.60
2023-02-27T08:49:21.561Z,3.80
2023-02-27T08:50:20.372Z,3.30
2023-02-27T08:51:21.084Z,3.70
2023-02-27T08:52:24.040Z,3.20
2023-02-27T08:53:22.539Z,3.80
2023-02-27T08:54:23.273Z,3.50
2023-02-27T08:55:23.989Z,3.70
2023-02-27T08:56:24.911Z,3.70
2023-02-27T08:57:25.657Z,3.70
2023-02-27T08:58:26.347Z,3.60
2023-02-27T08:59:27.466Z,3.70
2023-02-27T09:00:27.670Z,3.70
2023-02-27T09:01:29.085Z,3.50
2023-02-27T09:02:28.951Z,3.60
2023-02-27T09:03:29.628Z,3.70
2023-02-27T09:04:30.473Z,3.90
2023-02-27T09:05:31.172Z,3.60
2023-02-27T09:06:32.302Z,3.80
2023-02-27T09:07:32.571Z,3.70
2023-02-27T09:08:33.278Z,3.70
2023-02-27T09:09:34.480Z,3.70
2023-02-27T09:10:34.689Z,3.60
2023-02-27T09:11:38.201Z,4.00
2023-02-27T09:12:36.271Z,3.90
2023-02-27T09:13:36.969Z,3.70
2023-02-27T09:14:37.969Z,3.40
2023-02-27T09:15:38.178Z,3.80
2023-02-27T09:16:39.057Z,3.60
2023-02-27T09:17:39.712Z,3.60
2023-02-27T09:18:40.423Z,3.90
2023-02-27T09:19:41.135Z,3.70
2023-02-27T09:20:41.854Z,4.00
2023-02-27T09:21:42.581Z,3.90
2023-02-27T09:22:43.267Z,3.70
2023-02-27T09:23:43.977Z,4.00
2023-02-27T09:24:44.971Z,3.70
2023-02-27T09:25:45.177Z,3.50
2023-02-27T09:26:46.589Z,4.10
2023-02-27T09:27:46.533Z,3.70
2023-02-27T09:28:47.157Z,3.70
2023-02-27T09:29:47.976Z,3.40
2023-02-27T09:30:48.693Z,3.60
2023-02-27T09:31:49.555Z,3.70
2023-02-27T09:32:50.289Z,3.30
2023-02-27T09:33:50.997Z,3.30
2023-02-27T09:34:51.974Z,3.60
2023-02-27T09:35:52.698Z,2.90
2023-02-27T09:36:53.388Z,3.30
2023-02-27T09:37:54.100Z,3.30
2023-02-27T09:38:54.813Z,3.40
2023-02-27T09:39:55.978Z,3.30
2023-02-27T09:40:56.184Z,3.30
2023-02-27T09:41:56.889Z,3.50
2023-02-27T09:42:57.695Z,3.20
2023-02-27T09:43:58.332Z,3.00
2023-02-27T09:44:59.474Z,3.20
2023-02-27T09:45:59.724Z,3.00
2023-02-27T09:47:00.439Z,3.30
2023-02-27T09:48:01.080Z,3.30
2023-02-27T09:49:01.780Z,2.90
2023-02-27T09:50:02.985Z,3.30
2023-02-27T09:51:03.228Z,3.10
2023-02-27T09:52:03.908Z,3.10
2023-02-27T09:53:04.614Z,3.20
2023-02-27T09:54:05.323Z,3.00
2023-02-27T09:55:06.497Z,2.90
2023-02-27T09:56:06.680Z,2.90
2023-02-27T09:57:07.390Z,2.80
2023-02-27T09:58:08.213Z,2.70
2023-02-27T09:59:08.854Z,3.00
2023-02-27T10:00:09.988Z,3.00
2023-02-27T10:01:10.183Z,2.80
2023-02-27T10:02:10.970Z,3.50
2023-02-27T10:03:11.660Z,2.90
2023-02-27T10:04:12.335Z,3.30
2023-02-27T10:05:13.036Z,3.10
2023-02-27T10:06:13.750Z,3.10
2023-02-27T10:07:14.448Z,3.10
2023-02-27T10:08:15.153Z,3.20
2023-02-27T10:09:15.877Z,2.70
2023-02-27T10:10:16.994Z,2.80
2023-02-27T10:11:17.203Z,3.30
2023-02-27T10:12:17.907Z,2.90
2023-02-27T10:13:18.651Z,3.00
2023-02-27T10:14:19.335Z,2.90
2023-02-27T10:15:20.484Z,3.00
2023-02-27T10:16:20.754Z,2.70
2023-02-27T10:17:21.550Z,2.90
2023-02-27T10:18:28.195Z,2.70
2023-02-27T10:19:23.891Z,3.10
2023-02-27T10:20:23.986Z,3.10
2023-02-27T10:21:24.199Z,3.10
2023-02-27T10:22:24.918Z,3.00
2023-02-27T10:23:25.634Z,2.80
2023-02-27T10:24:26.345Z,2.80
2023-02-27T10:25:31.555Z,2.80
2023-02-27T10:26:28.030Z,3.10
2023-02-27T10:27:28.746Z,3.00
2023-02-27T10:28:29.472Z,2.60
2023-02-27T10:29:30.158Z,2.50
2023-02-27T10:30:34.293Z,2.70
2023-02-27T10:31:31.704Z,2.80
2023-02-27T10:32:32.725Z,2.90
2023-02-27T10:33:33.390Z,3.00
2023-02-27T10:34:34.098Z,2.90
2023-02-27T10:35:35.034Z,2.80
2023-02-27T10:36:35.767Z,2.60
2023-02-27T10:37:36.414Z,2.80
2023-02-27T10:38:37.125Z,2.60
2023-02-27T10:39:37.883Z,3.10
2023-02-27T10:40:38.541Z,2.80
2023-02-27T10:41:39.914Z,2.90
2023-02-27T10:42:41.655Z,2.60
2023-02-27T10:43:40.441Z,2.80
2023-02-27T10:44:41.125Z,2.70
2023-02-27T10:45:41.986Z,2.60
2023-02-27T10:46:42.731Z,2.80
2023-02-27T10:47:43.429Z,3.00
2023-02-27T10:48:44.106Z,2.80
2023-02-27T10:49:44.808Z,2.70
2023-02-27T10:50:46.032Z,2.30
2023-02-27T10:51:46.193Z,2.70
2023-02-27T10:52:46.902Z,2.80
2023-02-27T10:53:47.663Z,2.70
2023-02-27T10:54:48.385Z,2.40
2023-02-27T10:55:49.484Z,2.60
2023-02-27T10:56:49.699Z,2.80
2023-02-27T10:57:50.412Z,2.50
2023-02-27T10:58:51.131Z,2.60
2023-02-27T10:59:51.821Z,2.60
2023-02-27T11:00:52.995Z,2.90
2023-02-27T11:01:53.246Z,2.70
2023-02-27T11:02:53.923Z,2.80
2023-02-27T11:03:54.562Z,2.80
2023-02-27T11:04:55.371Z,2.60
2023-02-27T11:05:56.497Z,2.40
2023-02-27T11:06:56.712Z,2.60
2023-02-27T11:07:57.421Z,2.70
2023-02-27T11:08:58.130Z,2.60
2023-02-27T11:09:58.841Z,2.60
2023-02-27T11:11:00.002Z,2.40
2023-02-27T11:12:00.217Z,2.60
2023-02-27T11:13:00.912Z,2.40
2023-02-27T11:14:01.648Z,2.60
2023-02-27T11:15:02.326Z,2.40
2023-02-27T11:16:03.196Z,2.50
2023-02-27T11:17:03.917Z,2.40
2023-02-27T11:18:04.628Z,2.50
2023-02-27T11:19:05.295Z,3.00
2023-02-27T11:20:06.024Z,2.80
2023-02-27T11:21:06.985Z,2.60
2023-02-27T11:22:07.699Z,2.80
2023-02-27T11:23:08.408Z,2.70
2023-02-27T11:24:09.110Z,2.60
2023-02-27T11:25:09.822Z,2.50
2023-02-27T11:26:10.988Z,2.50
2023-02-27T11:27:11.206Z,2.50
2023-02-27T11:28:11.919Z,2.50
2023-02-27T11:29:12.646Z,2.50
2023-02-27T11:30:13.341Z,2.60
2023-02-27T11:31:14.540Z,2.40
2023-02-27T11:32:14.803Z,2.70
2023-02-27T11:33:15.480Z,2.60
2023-02-27T11:34:16.159Z,2.60
2023-02-27T11:35:16.890Z,2.50
2023-02-27T11:36:18.094Z,2.50
2023-02-27T11:37:18.276Z,2.60
2023-02-27T11:38:18.985Z,2.90
2023-02-27T11:39:19.756Z,2.80
2023-02-27T11:40:20.461Z,2.60
2023-02-27T11:41:21.493Z,2.50
2023-02-27T11:42:21.742Z,2.40
2023-02-27T11:43:22.450Z,2.60
2023-02-27T11:44:31.629Z,2.80
2023-02-27T11:46:04.860Z,2.50
2023-02-27T11:46:46.134Z,2.40
2023-02-27T11:47:26.002Z,3.20
2023-02-27T11:48:25.706Z,2.70
2023-02-27T11:49:26.358Z,2.40
2023-02-27T11:50:27.055Z,2.40
2023-02-27T11:51:28.009Z,2.80
2023-02-27T11:52:28.320Z,2.20
2023-02-27T11:53:29.026Z,2.20
2023-02-27T11:54:29.734Z,2.20
2023-02-27T11:55:30.445Z,2.50
2023-02-27T11:56:31.497Z,2.30
2023-02-27T11:57:31.707Z,2.60
2023-02-27T11:58:32.423Z,2.30
2023-02-27T11:59:33.139Z,2.30
2023-02-27T12:00:33.823Z,2.20
2023-02-27T12:01:34.995Z,2.30
2023-02-27T12:02:37.012Z,2.20
2023-02-27T12:03:35.998Z,2.40
2023-02-27T12:04:36.639Z,1.90
2023-02-27T12:05:37.345Z,2.40
2023-02-27T12:06:38.496Z,2.40
2023-02-27T12:07:38.718Z,2.10
2023-02-27T12:08:39.409Z,2.30
2023-02-27T12:09:40.139Z,2.20
2023-02-27T12:10:40.820Z,2.40
2023-02-27T12:11:42.030Z,2.50
2023-02-27T12:12:42.216Z,2.20
2023-02-27T12:13:42.927Z,2.30
2023-02-27T12:14:43.777Z,2.00
2023-02-27T12:15:44.409Z,2.20
2023-02-27T12:16:45.551Z,2.30
2023-02-27T12:17:45.716Z,2.30
2023-02-27T12:18:46.452Z,2.40
2023-02-27T12:19:47.092Z,2.40
2023-02-27T12:20:47.803Z,2.50
2023-02-27T12:21:49.706Z,2.10
2023-02-27T12:22:49.397Z,2.30
2023-02-27T12:23:50.108Z,2.30
2023-02-27T12:24:50.810Z,2.30
2023-02-27T12:25:51.683Z,2.40
2023-02-27T12:26:52.394Z,2.20
2023-02-27T12:27:53.106Z,2.10
2023-02-27T12:28:53.812Z,2.20
2023-02-27T12:29:54.532Z,2.30
2023-02-27T12:30:55.215Z,2.20
2023-02-27T12:31:56.036Z,2.30
2023-02-27T12:32:56.730Z,1.90
2023-02-27T12:33:57.526Z,2.30
2023-02-27T12:34:58.164Z,2.00
2023-02-27T12:35:58.951Z,2.30
2023-02-27T12:37:00.002Z,2.10
2023-02-27T12:38:00.209Z,2.00
2023-02-27T12:39:00.923Z,2.50
2023-02-27T12:40:01.625Z,2.30
2023-02-27T12:41:02.381Z,2.60
2023-02-27T12:42:03.502Z,2.10
2023-02-27T12:43:03.714Z,2.30
2023-02-27T12:44:04.414Z,2.20
2023-02-27T12:45:05.220Z,2.10
2023-02-27T12:46:05.933Z,2.60
2023-02-27T12:47:06.997Z,2.50
2023-02-27T12:48:07.201Z,2.20
2023-02-27T12:49:09.074Z,2.30
2023-02-27T12:50:08.558Z,2.30
2023-02-27T12:51:09.270Z,2.00
2023-02-27T12:52:09.999Z,2.30
2023-02-27T12:53:10.708Z,2.20
2023-02-27T12:54:11.414Z,2.30
2023-02-27T12:55:12.121Z,1.90
2023-02-27T12:56:12.836Z,2.10
2023-02-27T12:57:13.554Z,2.20
2023-02-27T12:58:14.250Z,2.00
2023-02-27T12:59:14.960Z,2.10
2023-02-27T13:00:15.686Z,1.90
2023-02-27T13:01:16.432Z,2.20
2023-02-27T13:02:17.499Z,2.00
2023-02-27T13:03:17.707Z,1.90
2023-02-27T13:04:18.487Z,1.80
2023-02-27T13:05:19.188Z,2.40
2023-02-27T13:06:19.892Z,2.00
2023-02-27T13:07:21.002Z,2.00
2023-02-27T13:08:21.217Z,2.30
2023-02-27T13:09:21.928Z,2.60
2023-02-27T13:10:22.632Z,2.20
2023-02-27T13:11:23.344Z,1.90
2023-02-27T13:12:24.522Z,2.30
2023-02-27T13:13:24.727Z,2.10
2023-02-27T13:14:25.439Z,1.70
2023-02-27T13:15:26.162Z,1.90
2023-02-27T13:16:26.920Z,1.90
2023-02-27T13:17:28.009Z,1.90
2023-02-27T13:18:28.222Z,2.20
2023-02-27T13:19:28.982Z,2.10
2023-02-27T13:20:29.628Z,2.10
2023-02-27T13:21:30.511Z,2.10
2023-02-27T13:22:31.515Z,2.20
2023-02-27T13:23:31.716Z,2.10
2023-02-27T13:24:32.438Z,1.90
2023-02-27T13:25:33.133Z,2.00
2023-02-27T13:26:33.835Z,3.00
2023-02-27T13:27:35.014Z,2.80